createdAt,value
2023-04-30T00:00:30.088Z,18.13
2023-04-30T00:03:15.919Z,22.63
2023-04-30T00:06:01.406Z,20.30
2023-04-30T00:08:46.605Z,25.80
2023-04-30T00:11:31.982Z,22.53
2023-04-30T00:14:17.476Z,24.80
2023-04-30T00:17:02.652Z,23.70
2023-04-30T00:19:48.211Z,24.33
2023-04-30T00:22:33.708Z,25.53
2023-04-30T00:25:19.599Z,19.70
2023-04-30T00:28:04.868Z,19.90
2023-04-30T00:30:49.884Z,22.30
2023-04-30T00:33:35.477Z,24.47
2023-04-30T00:36:20.660Z,26.03
2023-04-30T00:39:06.130Z,23.53
2023-04-30T00:41:51.259Z,22.13
2023-04-30T00:44:36.745Z,23.33
2023-04-30T00:47:21.999Z,20.60
2023-04-30T00:50:07.593Z,24.67
2023-04-30T00:52:53.267Z,25.93
2023-04-30T00:55:40.591Z,21.13
2023-04-30T00:58:26.076Z,19.23
2023-04-30T01:01:11.802Z,20.97
2023-04-30T01:03:56.734Z,19.43
2023-04-30T01:06:43.451Z,20.47
2023-04-30T01:09:29.244Z,23.93
2023-04-30T01:12:32.277Z,22.20
2023-04-30T01:15:36.581Z,19.67
2023-04-30T01:18:42.022Z,19.83
2023-04-30T01:21:30.069Z,19.67
2023-04-30T01:24:37.815Z,20.10
2023-04-30T01:27:41.812Z,20.53
2023-04-30T01:30:27.601Z,20.17
2023-04-30T01:33:13.450Z,20.37
2023-04-30T01:36:28.784Z,19.07
2023-04-30T01:39:51.999Z,22.33
2023-04-30T01:42:42.188Z,22.23
2023-04-30T01:45:44.118Z,20.17
2023-04-30T01:48:54.313Z,20.47
2023-04-30T01:51:44.190Z,23.77
2023-04-30T01:54:37.654Z,20.17
2023-04-30T01:57:32.814Z,19.43
2023-04-30T02:00:18.246Z,20.13
2023-04-30T02:03:03.624Z,19.17
2023-04-30T02:05:49.691Z,26.83
2023-04-30T02:08:34.629Z,20.00
2023-04-30T02:11:19.911Z,20.13
2023-04-30T02:14:05.276Z,23.07
2023-04-30T02:16:50.429Z,20.17
2023-04-30T02:19:35.654Z,27.73
2023-04-30T02:22:20.965Z,25.53
2023-04-30T02:25:07.163Z,21.27
2023-04-30T02:27:52.866Z,20.17
2023-04-30T02:30:37.864Z,21.97
2023-04-30T02:33:23.411Z,23.23
2023-04-30T02:36:08.644Z,23.67
2023-04-30T02:38:53.521Z,21.47
2023-04-30T02:41:38.903Z,23.63
2023-04-30T02:44:24.757Z,23.20
2023-04-30T02:47:10.362Z,19.17
2023-04-30T02:49:57.969Z,18.67
2023-04-30T02:52:45.760Z,20.53
2023-04-30T02:55:30.939Z,19.90
2023-04-30T02:58:16.307Z,20.07
2023-04-30T03:01:01.821Z,24.63
2023-04-30T03:03:46.818Z,22.07
2023-04-30T03:06:33.335Z,22.30
2023-04-30T03:09:18.656Z,22.90
2023-04-30T03:12:03.772Z,32.10
2023-04-30T03:14:49.045Z,27.77
2023-04-30T03:17:34.229Z,26.87
2023-04-30T03:20:19.894Z,23.93
2023-04-30T03:23:04.891Z,26.30
2023-04-30T03:25:50.093Z,22.00
2023-04-30T03:28:35.430Z,23.93
2023-04-30T03:31:20.835Z,24.23
2023-04-30T03:34:06.379Z,26.10
2023-04-30T03:36:51.680Z,30.03
2023-04-30T03:39:37.266Z,18.67
2023-04-30T03:42:22.651Z,21.27
2023-04-30T03:45:07.988Z,22.13
2023-04-30T03:47:53.531Z,25.53
2023-04-30T03:50:39.000Z,23.50
2023-04-30T03:53:23.900Z,23.83
2023-04-30T03:56:09.276Z,22.63
2023-04-30T03:58:54.775Z,21.10
2023-04-30T04:01:40.048Z,21.40
2023-04-30T04:04:25.749Z,20.80
2023-04-30T04:07:11.424Z,22.97
2023-04-30T04:09:56.830Z,24.47
2023-04-30T04:12:42.310Z,25.20
2023-04-30T04:15:27.745Z,25.67
2023-04-30T04:18:13.046Z,28.50
2023-04-30T04:20:58.671Z,23.60
2023-04-30T04:23:43.868Z,25.47
2023-04-30T04:26:29.087Z,21.83
2023-04-30T04:29:14.441Z,21.63
2023-04-30T04:31:59.401Z,22.50
2023-04-30T04:34:44.695Z,24.90
2023-04-30T04:37:30.030Z,24.30
2023-04-30T04:40:15.514Z,23.37
2023-04-30T04:43:00.883Z,25.40
2023-04-30T04:45:46.710Z,24.07
2023-04-30T04:48:31.808Z,23.97
2023-04-30T04:51:16.641Z,24.07
2023-04-30T04:54:01.619Z,21.50
2023-04-30T04:56:46.922Z,24.40
2023-04-30T04:59:32.025Z,22.23
2023-04-30T05:02:17.417Z,22.53
2023-04-30T05:05:02.841Z,24.17
2023-04-30T05:07:47.879Z,22.87
2023-04-30T05:10:32.936Z,23.33
2023-04-30T05:13:18.010Z,23.87
2023-04-30T05:16:03.491Z,23.03
2023-04-30T05:18:48.867Z,20.37
2023-04-30T05:21:34.222Z,23.23
2023-04-30T05:24:19.244Z,26.37
2023-04-30T05:27:04.536Z,26.77
2023-04-30T05:29:49.919Z,24.67
2023-04-30T05:32:35.470Z,25.80
2023-04-30T05:35:20.898Z,26.33
2023-04-30T05:38:06.026Z,24.30
2023-04-30T05:40:51.395Z,25.37
2023-04-30T05:43:36.802Z,23.53
2023-04-30T05:46:22.508Z,26.67
2023-04-30T05:49:07.451Z,29.43
2023-04-30T05:51:53.161Z,23.90
2023-04-30T05:54:38.348Z,21.77
2023-04-30T05:57:23.946Z,22.27
2023-04-30T06:00:09.669Z,22.77
2023-04-30T06:02:54.920Z,19.73
2023-04-30T06:05:40.271Z,22.73
2023-04-30T06:08:26.169Z,22.33
2023-04-30T06:11:14.972Z,25.47
2023-04-30T06:14:00.762Z,25.53
2023-04-30T06:16:46.078Z,25.67
2023-04-30T06:19:31.157Z,23.53
2023-04-30T06:22:16.730Z,23.27
2023-04-30T06:25:01.892Z,22.63
2023-04-30T06:27:47.541Z,20.60
2023-04-30T06:30:33.065Z,18.30
2023-04-30T06:33:18.041Z,18.50
2023-04-30T06:36:03.827Z,19.63
2023-04-30T06:38:48.900Z,19.80
2023-04-30T06:41:34.347Z,16.40
2023-04-30T06:44:19.640Z,22.03
2023-04-30T06:47:05.349Z,16.03
2023-04-30T06:49:50.427Z,15.50
2023-04-30T06:52:35.351Z,16.83
2023-04-30T06:55:20.891Z,18.80
2023-04-30T06:58:06.047Z,20.87
2023-04-30T07:00:51.460Z,26.43
2023-04-30T07:03:36.753Z,18.03
2023-04-30T07:06:22.268Z,20.87
2023-04-30T07:09:07.851Z,25.97
2023-04-30T07:11:53.244Z,15.90
2023-04-30T07:14:38.485Z,15.17
2023-04-30T07:17:24.645Z,17.92
2023-04-30T07:20:12.241Z,22.77
2023-04-30T07:22:57.686Z,17.40
2023-04-30T07:25:42.546Z,18.40
2023-04-30T07:28:28.108Z,24.67
2023-04-30T07:31:13.603Z,25.70
2023-04-30T07:33:58.949Z,24.17
2023-04-30T07:36:44.214Z,21.95
2023-04-30T07:39:29.450Z,22.65
2023-04-30T07:42:14.752Z,30.77
2023-04-30T07:45:00.286Z,21.73
2023-04-30T07:47:45.921Z,28.42
2023-04-30T07:50:31.538Z,23.08
2023-04-30T07:53:16.756Z,22.80
2023-04-30T07:56:02.316Z,16.85
2023-04-30T07:58:47.682Z,15.32
2023-04-30T08:01:33.370Z,16.27
2023-04-30T08:04:21.157Z,15.25
2023-04-30T08:07:07.416Z,15.60
2023-04-30T08:09:52.364Z,18.35
2023-04-30T08:12:37.178Z,17.35
2023-04-30T08:15:22.798Z,12.48
2023-04-30T08:18:09.415Z,14.98
2023-04-30T08:20:54.769Z,12.52
2023-04-30T08:23:40.409Z,22.25
2023-04-30T08:26:25.643Z,16.80
2023-04-30T08:29:13.771Z,15.82
2023-04-30T08:32:03.105Z,13.77
2023-04-30T08:34:48.157Z,14.48
2023-04-30T08:37:34.048Z,13.75
2023-04-30T08:40:20.968Z,13.27
2023-04-30T08:43:08.378Z,14.05
2023-04-30T08:45:53.813Z,14.50
2023-04-30T08:48:41.321Z,12.43
2023-04-30T08:51:27.465Z,12.60
2023-04-30T08:54:13.489Z,16.55
2023-04-30T08:56:59.008Z,16.73
2023-04-30T08:59:47.520Z,14.48
2023-04-30T09:02:34.718Z,10.60
2023-04-30T09:05:19.813Z,13.10
2023-04-30T09:08:06.884Z,12.85
2023-04-30T09:10:52.310Z,10.77
2023-04-30T09:13:41.305Z,15.50
2023-04-30T09:16:29.079Z,12.13
2023-04-30T09:19:29.146Z,17.50
2023-04-30T09:22:22.875Z,14.25
2023-04-30T09:25:09.612Z,16.27
2023-04-30T09:28:11.997Z,13.50
2023-04-30T09:30:58.001Z,13.88
2023-04-30T09:33:46.566Z,12.48
2023-04-30T09:36:32.938Z,15.93
2023-04-30T09:39:19.984Z,15.55
2023-04-30T09:42:11.614Z,13.73
2023-04-30T09:44:57.807Z,13.93
2023-04-30T09:47:43.659Z,14.82
2023-04-30T09:50:43.198Z,12.88
2023-04-30T09:53:28.704Z,14.27
2023-04-30T09:56:18.502Z,13.63
2023-04-30T09:59:07.062Z,12.38
2023-04-30T10:01:52.470Z,11.05
2023-04-30T10:04:42.776Z,16.52
2023-04-30T10:07:38.578Z,14.25
2023-04-30T10:10:26.653Z,13.85
2023-04-30T10:13:16.830Z,11.95
2023-04-30T10:16:11.664Z,13.30
2023-04-30T10:18:59.978Z,13.80
2023-04-30T10:21:46.598Z,11.38
2023-04-30T10:24:32.097Z,13.65
2023-04-30T10:27:18.639Z,12.45
2023-04-30T10:30:04.430Z,11.40
2023-04-30T10:32:56.240Z,13.68
2023-04-30T10:36:12.081Z,17.02
2023-04-30T10:38:59.854Z,14.93
2023-04-30T10:41:45.780Z,13.43
2023-04-30T10:44:36.733Z,11.95
2023-04-30T10:47:34.677Z,8.07
2023-04-30T10:50:23.537Z,12.85
2023-04-30T10:53:13.552Z,10.00
2023-04-30T10:56:00.931Z,11.70
2023-04-30T10:58:50.567Z,13.57
2023-04-30T11:01:55.344Z,14.48
2023-04-30T11:05:12.163Z,12.55
2023-04-30T11:07:58.716Z,13.43
2023-04-30T11:10:58.338Z,9.57
2023-04-30T11:13:48.152Z,9.05
2023-04-30T11:16:36.671Z,11.57
2023-04-30T11:19:22.814Z,13.20
2023-04-30T11:22:07.939Z,9.25
2023-04-30T11:24:59.411Z,9.88
2023-04-30T11:27:45.623Z,9.95
2023-04-30T11:30:31.372Z,12.18
2023-04-30T11:33:17.598Z,8.98
2023-04-30T11:36:03.041Z,7.07
2023-04-30T11:38:48.553Z,14.85
2023-04-30T11:41:41.087Z,5.93
2023-04-30T11:44:26.589Z,9.95
2023-04-30T11:47:15.361Z,8.27
2023-04-30T11:50:00.378Z,8.05
2023-04-30T11:52:50.228Z,12.18
2023-04-30T11:55:35.366Z,7.47
2023-04-30T11:58:20.854Z,10.32
2023-04-30T12:01:09.895Z,8.20
2023-04-30T12:03:56.790Z,7.78
2023-04-30T12:06:41.823Z,9.10
2023-04-30T12:09:27.315Z,9.40
2023-04-30T12:12:12.705Z,9.30
2023-04-30T12:14:57.951Z,10.50
2023-04-30T12:17:46.032Z,15.15
2023-04-30T12:20:32.378Z,7.28
2023-04-30T12:23:19.364Z,8.05
2023-04-30T12:26:04.783Z,8.25
2023-04-30T12:28:50.047Z,8.15
2023-04-30T12:31:39.446Z,9.57
2023-04-30T12:34:26.888Z,7.47
2023-04-30T12:37:15.481Z,7.00
2023-04-30T12:40:04.005Z,7.28
2023-04-30T12:42:49.007Z,8.70
2023-04-30T12:45:51.288Z,8.15
2023-04-30T12:48:44.676Z,9.38
2023-04-30T12:51:29.846Z,9.93
2023-04-30T12:54:28.928Z,9.50
2023-04-30T12:57:18.188Z,7.80
2023-04-30T13:00:08.420Z,7.22
2023-04-30T13:02:53.795Z,9.32
2023-04-30T13:05:41.244Z,8.32
2023-04-30T13:08:26.200Z,10.10
2023-04-30T13:11:11.711Z,6.97
2023-04-30T13:13:57.301Z,8.45
2023-04-30T13:16:42.616Z,10.13
2023-04-30T13:19:27.964Z,8.73
2023-04-30T13:22:13.222Z,9.68
2023-04-30T13:24:58.741Z,9.35
2023-04-30T13:27:44.128Z,10.82
2023-04-30T13:30:29.319Z,9.40
2023-04-30T13:33:14.657Z,9.90
2023-04-30T13:35:59.914Z,8.02
2023-04-30T13:38:45.397Z,10.25
2023-04-30T13:41:30.331Z,9.38
2023-04-30T13:44:15.757Z,8.43
2023-04-30T13:47:01.271Z,10.32
2023-04-30T13:49:46.629Z,7.65
2023-04-30T13:52:32.567Z,10.02
2023-04-30T13:55:17.998Z,8.80
2023-04-30T13:58:03.385Z,8.82
2023-04-30T14:00:48.209Z,9.95
2023-04-30T14:03:33.783Z,10.73
2023-04-30T14:06:22.216Z,13.15
2023-04-30T14:09:08.327Z,11.82
2023-04-30T14:11:53.542Z,11.82
2023-04-30T14:14:39.339Z,9.35
2023-04-30T14:17:25.303Z,13.38
2023-04-30T14:20:11.639Z,9.40
2023-04-30T14:22:56.576Z,7.25
2023-04-30T14:25:42.228Z,9.05
2023-04-30T14:28:27.478Z,6.20
2023-04-30T14:31:12.982Z,7.53
2023-04-30T14:33:58.116Z,9.35
2023-04-30T14:36:46.269Z,11.90
2023-04-30T14:39:32.442Z,6.70
2023-04-30T14:42:19.057Z,7.97
2023-04-30T14:45:04.980Z,12.40
2023-04-30T14:47:50.589Z,8.07
2023-04-30T14:50:38.465Z,9.60
2023-04-30T14:53:23.567Z,10.15
2023-04-30T14:56:08.522Z,8.18
2023-04-30T14:58:53.876Z,7.00
2023-04-30T15:01:39.325Z,7.30
2023-04-30T15:04:24.568Z,7.47
2023-04-30T15:07:10.946Z,9.55
2023-04-30T15:09:58.558Z,11.18
2023-04-30T15:12:47.215Z,11.60
2023-04-30T15:15:32.534Z,8.07
2023-04-30T15:18:21.873Z,11.00
2023-04-30T15:21:09.988Z,8.75
2023-04-30T15:23:55.390Z,10.52
2023-04-30T15:26:43.969Z,10.65
2023-04-30T15:29:32.628Z,12.50
2023-04-30T15:32:18.804Z,8.35
2023-04-30T15:35:04.095Z,13.02
2023-04-30T15:37:49.463Z,11.00
2023-04-30T15:40:36.438Z,10.77
2023-04-30T15:43:21.508Z,12.85
2023-04-30T15:46:07.484Z,9.10
2023-04-30T15:48:52.685Z,11.18
2023-04-30T15:51:38.024Z,8.48
2023-04-30T15:54:23.719Z,9.43
2023-04-30T15:57:09.010Z,7.07
2023-04-30T15:59:54.139Z,8.35
2023-04-30T16:02:39.499Z,8.48
2023-04-30T16:05:27.949Z,8.40
2023-04-30T16:08:13.492Z,9.20
2023-04-30T16:10:59.925Z,9.45
2023-04-30T16:13:45.061Z,7.38
2023-04-30T16:16:30.681Z,9.57
2023-04-30T16:19:17.452Z,10.07
2023-04-30T16:22:02.688Z,8.90
2023-04-30T16:24:48.107Z,6.30
2023-04-30T16:27:35.745Z,8.63
2023-04-30T16:30:22.741Z,8.82
2023-04-30T16:33:07.917Z,8.75
2023-04-30T16:35:53.025Z,6.90
2023-04-30T16:38:41.547Z,7.93
2023-04-30T16:41:26.864Z,7.40
2023-04-30T16:44:12.249Z,8.38
2023-04-30T16:47:02.455Z,9.43
2023-04-30T16:49:47.524Z,7.53
2023-04-30T16:52:32.942Z,7.60
2023-04-30T16:55:18.087Z,6.65
2023-04-30T16:58:03.408Z,10.10
2023-04-30T17:00:48.825Z,6.88
2023-04-30T17:03:34.414Z,8.55
2023-04-30T17:06:19.688Z,7.55
2023-04-30T17:09:05.284Z,16.17
2023-04-30T17:11:53.393Z,8.65
2023-04-30T17:14:38.873Z,9.80
2023-04-30T17:17:24.405Z,11.85
2023-04-30T17:20:13.059Z,9.48
2023-04-30T17:23:01.604Z,13.38
2023-04-30T17:25:50.508Z,11.77
2023-04-30T17:28:35.439Z,10.90
2023-04-30T17:31:20.925Z,10.30
2023-04-30T17:34:06.390Z,9.75
2023-04-30T17:36:51.442Z,13.40
2023-04-30T17:39:36.783Z,9.65
2023-04-30T17:42:22.888Z,11.98
2023-04-30T17:45:08.443Z,11.35
2023-04-30T17:47:53.617Z,7.38
2023-04-30T17:50:38.692Z,7.55
2023-04-30T17:53:24.053Z,13.07
2023-04-30T17:56:09.367Z,9.98
2023-04-30T17:58:54.792Z,10.48
2023-04-30T18:01:39.996Z,8.57
2023-04-30T18:04:25.632Z,12.35
2023-04-30T18:07:11.244Z,12.57
2023-04-30T18:09:56.867Z,10.38
2023-04-30T18:12:42.060Z,9.45
2023-04-30T18:15:27.532Z,9.23
2023-04-30T18:18:12.417Z,11.10
2023-04-30T18:20:57.635Z,10.43
2023-04-30T18:23:43.024Z,11.13
2023-04-30T18:26:28.468Z,10.82
2023-04-30T18:29:14.896Z,12.27
2023-04-30T18:32:00.915Z,12.13
2023-04-30T18:34:46.064Z,11.30
2023-04-30T18:37:31.447Z,10.45
2023-04-30T18:40:17.090Z,11.32
2023-04-30T18:43:02.123Z,10.90
2023-04-30T18:45:47.402Z,11.20
2023-04-30T18:48:32.453Z,10.55
2023-04-30T18:51:17.712Z,11.02
2023-04-30T18:54:02.799Z,13.88
2023-04-30T18:56:48.237Z,14.35
2023-04-30T18:59:33.619Z,10.55
2023-04-30T19:02:20.811Z,13.98
2023-04-30T19:05:06.263Z,11.38
2023-04-30T19:07:52.035Z,10.23
2023-04-30T19:10:37.366Z,13.00
2023-04-30T19:13:22.876Z,12.65
2023-04-30T19:16:08.199Z,12.98
2023-04-30T19:18:53.450Z,12.93
2023-04-30T19:21:38.862Z,17.33
2023-04-30T19:24:24.340Z,13.40
2023-04-30T19:27:09.627Z,13.60
2023-04-30T19:29:55.100Z,18.08
2023-04-30T19:32:40.704Z,15.30
2023-04-30T19:35:25.960Z,16.15
2023-04-30T19:38:11.303Z,14.73
2023-04-30T19:40:56.768Z,16.92
2023-04-30T19:43:42.051Z,17.85
2023-04-30T19:46:27.154Z,19.00
2023-04-30T19:49:12.276Z,19.50
2023-04-30T19:51:58.259Z,17.23
2023-04-30T19:54:43.565Z,18.52
2023-04-30T19:57:31.593Z,17.63
2023-04-30T20:00:16.982Z,17.77
2023-04-30T20:03:02.520Z,22.02
2023-04-30T20:05:47.902Z,19.90
2023-04-30T20:08:33.371Z,19.80
2023-04-30T20:11:18.671Z,18.27
2023-04-30T20:14:04.433Z,20.17
2023-04-30T20:16:50.230Z,31.67
2023-04-30T20:19:35.882Z,32.88
2023-04-30T20:22:21.327Z,31.48
2023-04-30T20:25:06.853Z,28.33
2023-04-30T20:27:52.021Z,26.48
2023-04-30T20:30:36.889Z,20.45
2023-04-30T20:33:22.318Z,20.75
2023-04-30T20:36:07.225Z,19.80
2023-04-30T20:38:52.556Z,20.13
2023-04-30T20:41:37.540Z,20.30
2023-04-30T20:44:22.761Z,20.25
2023-04-30T20:47:08.329Z,21.98
2023-04-30T20:49:53.640Z,20.58
2023-04-30T20:52:39.440Z,19.13
2023-04-30T20:55:24.812Z,24.30
2023-04-30T20:58:10.238Z,27.67
2023-04-30T21:00:55.184Z,24.85
2023-04-30T21:03:40.499Z,25.63
2023-04-30T21:06:26.060Z,23.92
2023-04-30T21:09:12.603Z,20.45
2023-04-30T21:11:57.764Z,22.90
2023-04-30T21:14:46.775Z,23.02
2023-04-30T21:17:31.839Z,23.80
2023-04-30T21:20:17.232Z,22.77
2023-04-30T21:23:03.468Z,23.73
2023-04-30T21:25:48.813Z,23.58
2023-04-30T21:28:34.193Z,22.48
2023-04-30T21:31:19.408Z,24.65
2023-04-30T21:34:04.790Z,18.60
2023-04-30T21:36:50.625Z,18.02
2023-04-30T21:39:35.581Z,21.75
2023-04-30T21:42:23.126Z,19.05
2023-04-30T21:45:08.437Z,18.83
2023-04-30T21:47:53.597Z,19.35
2023-04-30T21:50:39.270Z,16.40
2023-04-30T21:53:24.419Z,17.30
2023-04-30T21:56:11.185Z,18.60
2023-04-30T21:58:56.396Z,17.90
2023-04-30T22:01:41.601Z,15.70
2023-04-30T22:04:27.047Z,15.60
2023-04-30T22:07:12.314Z,22.33
2023-04-30T22:09:57.491Z,26.23
2023-04-30T22:12:46.251Z,18.00
2023-04-30T22:15:41.186Z,17.70
2023-04-30T22:18:32.560Z,16.80
2023-04-30T22:21:17.881Z,16.63
2023-04-30T22:24:02.839Z,18.02
2023-04-30T22:26:48.080Z,14.52
2023-04-30T22:29:33.608Z,20.27
2023-04-30T22:32:19.055Z,18.05
2023-04-30T22:35:04.458Z,14.63
2023-04-30T22:37:50.085Z,16.58
2023-04-30T22:40:38.188Z,15.63
2023-04-30T22:43:24.057Z,17.30
2023-04-30T22:46:09.975Z,19.47
2023-04-30T22:48:55.132Z,16.90
2023-04-30T22:51:42.296Z,17.67
2023-04-30T22:54:27.724Z,20.33
2023-04-30T22:57:13.122Z,16.45
2023-04-30T22:59:58.485Z,15.70
2023-04-30T23:02:43.788Z,17.03
2023-04-30T23:05:29.034Z,15.53
2023-04-30T23:08:14.524Z,17.80
2023-04-30T23:10:59.700Z,19.30
2023-04-30T23:13:45.162Z,15.50
2023-04-30T23:16:30.088Z,16.87
2023-04-30T23:19:15.539Z,16.00
2023-04-30T23:22:01.355Z,17.97
2023-04-30T23:24:46.695Z,17.90
2023-04-30T23:27:32.020Z,15.93
2023-04-30T23:30:16.896Z,18.70
2023-04-30T23:33:02.388Z,18.57
2023-04-30T23:35:48.367Z,18.97
2023-04-30T23:38:33.559Z,16.80
2023-04-30T23:41:19.104Z,16.33
2023-04-30T23:44:04.716Z,14.60
2023-04-30T23:46:50.019Z,18.70
2023-04-30T23:49:35.322Z,15.37
2023-04-30T23:52:20.522Z,18.23
2023-04-30T23:55:06.339Z,18.23
2023-04-30T23:57:51.734Z,15.40
